sensor_id;sensor_type;location;lat;lon;timestamp;temperature;humidity
37794;DHT22;23632;48.826;15.176;2023-03-01T00:01:31;-0.50;70.00
37794;DHT22;23632;48.826;15.176;2023-03-01T00:03:59;-0.50;70.00
37794;DHT22;23632;48.826;15.176;2023-03-01T00:06:27;-0.50;69.90
37794;DHT22;23632;48.826;15.176;2023-03-01T00:08:55;-0.60;69.90
37794;DHT22;23632;48.826;15.176;2023-03-01T00:11:24;-0.60;69.90
37794;DHT22;23632;48.826;15.176;2023-03-01T00:13:55;-0.60;69.90
37794;DHT22;23632;48.826;15.176;2023-03-01T00:16:30;-0.70;69.90
37794;DHT22;23632;48.826;15.176;2023-03-01T00:19:00;-0.70;70.00
37794;DHT22;23632;48.826;15.176;2023-03-01T00:21:27;-0.70;70.00
37794;DHT22;23632;48.826;15.176;2023-03-01T00:23:55;-0.70;69.90
37794;DHT22;23632;48.826;15.176;2023-03-01T00:26:23;-0.70;70.00
37794;DHT22;23632;48.826;15.176;2023-03-01T00:28:52;-0.80;70.10
37794;DHT22;23632;48.826;15.176;2023-03-01T00:31:25;-0.80;70.10
37794;DHT22;23632;48.826;15.176;2023-03-01T00:33:57;-0.80;70.20
37794;DHT22;23632;48.826;15.176;2023-03-01T00:36:31;-0.80;70.20
37794;DHT22;23632;48.826;15.176;2023-03-01T00:39:01;-0.80;70.20
37794;DHT22;23632;48.826;15.176;2023-03-01T00:41:29;-0.80;70.30
37794;DHT22;23632;48.826;15.176;2023-03-01T00:43:57;-0.90;70.30
37794;DHT22;23632;48.826;15.176;2023-03-01T00:46:26;-0.90;70.40
37794;DHT22;23632;48.826;15.176;2023-03-01T00:48:54;-0.90;70.40
37794;DHT22;23632;48.826;15.176;2023-03-01T00:51:24;-0.90;70.50
37794;DHT22;23632;48.826;15.176;2023-03-01T00:53:55;-0.90;70.60
37794;DHT22;23632;48.826;15.176;2023-03-01T00:56:26;-0.90;70.60
37794;DHT22;23632;48.826;15.176;2023-03-01T00:58:54;-0.90;70.60
37794;DHT22;23632;48.826;15.176;2023-03-01T01:01:24;-0.90;70.60
37794;DHT22;23632;48.826;15.176;2023-03-01T01:04:00;-1.00;70.60
37794;DHT22;23632;48.826;15.176;2023-03-01T01:06:32;-0.90;70.70
37794;DHT22;23632;48.826;15.176;2023-03-01T01:09:06;-1.00;70.70
37794;DHT22;23632;48.826;15.176;2023-03-01T01:11:34;-1.00;70.70
37794;DHT22;23632;48.826;15.176;2023-03-01T01:14:04;-1.00;70.70
37794;DHT22;23632;48.826;15.176;2023-03-01T01:16:31;-1.00;70.70
37794;DHT22;23632;48.826;15.176;2023-03-01T01:19:00;-1.00;70.80
37794;DHT22;23632;48.826;15.176;2023-03-01T01:21:28;-1.00;70.90
37794;DHT22;23632;48.826;15.176;2023-03-01T01:23:56;-1.10;71.00
37794;DHT22;23632;48.826;15.176;2023-03-01T01:26:26;-1.10;71.10
37794;DHT22;23632;48.826;15.176;2023-03-01T01:28:55;-1.10;71.10
37794;DHT22;23632;48.826;15.176;2023-03-01T01:31:24;-1.10;71.00
37794;DHT22;23632;48.826;15.176;2023-03-01T01:33:53;-1.10;71.00
37794;DHT22;23632;48.826;15.176;2023-03-01T01:36:21;-1.10;70.90
37794;DHT22;23632;48.826;15.176;2023-03-01T01:38:48;-1.10;71.80
37794;DHT22;23632;48.826;15.176;2023-03-01T01:41:16;-1.10;70.80
37794;DHT22;23632;48.826;15.176;2023-03-01T01:44:10;-1.20;70.70
37794;DHT22;23632;48.826;15.176;2023-03-01T01:46:46;-1.20;70.80
37794;DHT22;23632;48.826;15.176;2023-03-01T01:52:12;-1.20;70.90
37794;DHT22;23632;48.826;15.176;2023-03-01T01:57:41;-1.30;70.80
37794;DHT22;23632;48.826;15.176;2023-03-01T02:00:22;-1.30;70.80
37794;DHT22;23632;48.826;15.176;2023-03-01T02:03:15;-1.30;70.80
37794;DHT22;23632;48.826;15.176;2023-03-01T02:06:12;-1.40;70.80
37794;DHT22;23632;48.826;15.176;2023-03-01T02:08:42;-1.40;70.90
37794;DHT22;23632;48.826;15.176;2023-03-01T02:11:10;-1.40;70.90
37794;DHT22;23632;48.826;15.176;2023-03-01T02:13:37;-1.40;71.00
37794;DHT22;23632;48.826;15.176;2023-03-01T02:16:13;-1.40;71.00
37794;DHT22;23632;48.826;15.176;2023-03-01T02:18:42;-1.40;71.10
37794;DHT22;23632;48.826;15.176;2023-03-01T02:21:37;-1.40;71.10
37794;DHT22;23632;48.826;15.176;2023-03-01T02:24:22;-1.40;72.10
37794;DHT22;23632;48.826;15.176;2023-03-01T02:26:55;-1.40;71.30
37794;DHT22;23632;48.826;15.176;2023-03-01T02:29:23;-1.40;71.30
37794;DHT22;23632;48.826;15.176;2023-03-01T02:31:52;-1.40;71.40
37794;DHT22;23632;48.826;15.176;2023-03-01T02:34:25;-1.40;71.40
37794;DHT22;23632;48.826;15.176;2023-03-01T02:37:02;-1.40;71.40
37794;DHT22;23632;48.826;15.176;2023-03-01T02:39:37;-1.40;71.40
37794;DHT22;23632;48.826;15.176;2023-03-01T02:42:13;-1.40;71.30
37794;DHT22;23632;48.826;15.176;2023-03-01T02:44:43;-1.50;71.10
37794;DHT22;23632;48.826;15.176;2023-03-01T02:47:10;-1.50;71.10
37794;DHT22;23632;48.826;15.176;2023-03-01T02:49:37;-1.50;71.10
37794;DHT22;23632;48.826;15.176;2023-03-01T02:55:16;-1.50;71.10
37794;DHT22;23632;48.826;15.176;2023-03-01T02:57:46;-1.50;71.10
37794;DHT22;23632;48.826;15.176;2023-03-01T03:00:24;-1.60;71.10
37794;DHT22;23632;48.826;15.176;2023-03-01T03:02:55;-1.60;71.10
37794;DHT22;23632;48.826;15.176;2023-03-01T03:05:27;-1.60;71.10
37794;DHT22;23632;48.826;15.176;2023-03-01T03:07:58;-1.60;71.30
37794;DHT22;23632;48.826;15.176;2023-03-01T03:10:32;-1.60;71.40
37794;DHT22;23632;48.826;15.176;2023-03-01T03:13:11;-1.60;71.50
37794;DHT22;23632;48.826;15.176;2023-03-01T03:15:41;-1.60;71.60
37794;DHT22;23632;48.826;15.176;2023-03-01T03:18:11;-1.60;71.70
37794;DHT22;23632;48.826;15.176;2023-03-01T03:20:41;-1.60;71.80
37794;DHT22;23632;48.826;15.176;2023-03-01T03:23:09;-1.60;72.00
37794;DHT22;23632;48.826;15.176;2023-03-01T03:25:36;-1.60;72.00
37794;DHT22;23632;48.826;15.176;2023-03-01T03:28:06;-1.60;71.90
37794;DHT22;23632;48.826;15.176;2023-03-01T03:30:39;-1.60;72.00
37794;DHT22;23632;48.826;15.176;2023-03-01T03:33:07;-1.50;72.00
37794;DHT22;23632;48.826;15.176;2023-03-01T03:35:45;-1.50;72.10
37794;DHT22;23632;48.826;15.176;2023-03-01T03:38:15;-1.50;72.10
37794;DHT22;23632;48.826;15.176;2023-03-01T03:40:49;-1.50;72.10
37794;DHT22;23632;48.826;15.176;2023-03-01T03:43:31;-1.50;72.10
37794;DHT22;23632;48.826;15.176;2023-03-01T03:46:00;-1.50;72.20
37794;DHT22;23632;48.826;15.176;2023-03-01T03:48:27;-1.50;72.20
37794;DHT22;23632;48.826;15.176;2023-03-01T03:50:57;-1.40;72.30
37794;DHT22;23632;48.826;15.176;2023-03-01T03:53:26;-1.40;72.30
37794;DHT22;23632;48.826;15.176;2023-03-01T03:55:55;-1.40;72.30
37794;DHT22;23632;48.826;15.176;2023-03-01T03:58:23;-1.40;72.20
37794;DHT22;23632;48.826;15.176;2023-03-01T04:00:53;-1.40;72.20
37794;DHT22;23632;48.826;15.176;2023-03-01T04:03:24;-1.40;72.20
37794;DHT22;23632;48.826;15.176;2023-03-01T04:05:52;-1.40;72.10
37794;DHT22;23632;48.826;15.176;2023-03-01T04:08:22;-1.40;72.10
37794;DHT22;23632;48.826;15.176;2023-03-01T04:10:52;-1.30;72.20
37794;DHT22;23632;48.826;15.176;2023-03-01T04:13:21;-1.30;72.20
37794;DHT22;23632;48.826;15.176;2023-03-01T04:15:50;-1.30;72.20
37794;DHT22;23632;48.826;15.176;2023-03-01T04:18:19;-1.30;72.20
37794;DHT22;23632;48.826;15.176;2023-03-01T04:20:48;-1.30;72.30
37794;DHT22;23632;48.826;15.176;2023-03-01T04:23:20;-1.30;72.20
37794;DHT22;23632;48.826;15.176;2023-03-01T04:25:55;-1.30;72.20
37794;DHT22;23632;48.826;15.176;2023-03-01T04:28:36;-1.30;72.20
37794;DHT22;23632;48.826;15.176;2023-03-01T04:31:09;-1.30;72.10
37794;DHT22;23632;48.826;15.176;2023-03-01T04:33:43;-1.30;72.10
37794;DHT22;23632;48.826;15.176;2023-03-01T04:36:11;-1.30;72.00
37794;DHT22;23632;48.826;15.176;2023-03-01T04:38:40;-1.30;72.10
37794;DHT22;23632;48.826;15.176;2023-03-01T04:41:10;-1.30;72.10
37794;DHT22;23632;48.826;15.176;2023-03-01T04:43:40;-1.30;72.20
37794;DHT22;23632;48.826;15.176;2023-03-01T04:46:14;-1.30;72.30
37794;DHT22;23632;48.826;15.176;2023-03-01T04:48:44;-1.30;73.20
37794;DHT22;23632;48.826;15.176;2023-03-01T04:51:11;-1.30;72.20
37794;DHT22;23632;48.826;15.176;2023-03-01T04:53:43;-1.30;72.30
37794;DHT22;23632;48.826;15.176;2023-03-01T04:56:12;-1.30;72.30
37794;DHT22;23632;48.826;15.176;2023-03-01T04:58:40;-1.30;73.10
37794;DHT22;23632;48.826;15.176;2023-03-01T05:01:13;-1.30;72.20
37794;DHT22;23632;48.826;15.176;2023-03-01T05:03:48;-1.40;72.10
37794;DHT22;23632;48.826;15.176;2023-03-01T05:06:17;-1.40;72.20
37794;DHT22;23632;48.826;15.176;2023-03-01T05:08:45;-1.30;72.20
37794;DHT22;23632;48.826;15.176;2023-03-01T05:11:12;-1.40;72.20
37794;DHT22;23632;48.826;15.176;2023-03-01T05:13:39;-1.30;72.30
37794;DHT22;23632;48.826;15.176;2023-03-01T05:16:07;-1.40;72.20
37794;DHT22;23632;48.826;15.176;2023-03-01T05:18:39;-1.40;72.20
37794;DHT22;23632;48.826;15.176;2023-03-01T05:21:10;-1.30;72.30
37794;DHT22;23632;48.826;15.176;2023-03-01T05:23:39;-1.40;72.20
37794;DHT22;23632;48.826;15.176;2023-03-01T05:26:07;-1.30;72.30
37794;DHT22;23632;48.826;15.176;2023-03-01T05:28:52;-1.30;72.40
37794;DHT22;23632;48.826;15.176;2023-03-01T05:31:25;-1.30;72.40
37794;DHT22;23632;48.826;15.176;2023-03-01T05:33:52;-1.30;72.50
37794;DHT22;23632;48.826;15.176;2023-03-01T05:36:19;-1.30;72.70
37794;DHT22;23632;48.826;15.176;2023-03-01T05:38:46;-1.20;73.00
37794;DHT22;23632;48.826;15.176;2023-03-01T05:41:15;-1.20;73.10
37794;DHT22;23632;48.826;15.176;2023-03-01T05:43:43;-1.10;73.20
37794;DHT22;23632;48.826;15.176;2023-03-01T05:46:11;-1.00;73.30
37794;DHT22;23632;48.826;15.176;2023-03-01T05:48:40;-0.90;73.40
37794;DHT22;23632;48.826;15.176;2023-03-01T05:51:07;-0.90;73.40
37794;DHT22;23632;48.826;15.176;2023-03-01T05:53:34;-0.80;73.40
37794;DHT22;23632;48.826;15.176;2023-03-01T05:56:03;-0.70;73.40
37794;DHT22;23632;48.826;15.176;2023-03-01T05:58:31;-0.60;73.50
37794;DHT22;23632;48.826;15.176;2023-03-01T06:00:58;-0.50;73.40
37794;DHT22;23632;48.826;15.176;2023-03-01T06:03:25;-0.40;73.40
37794;DHT22;23632;48.826;15.176;2023-03-01T06:05:57;-0.30;73.40
37794;DHT22;23632;48.826;15.176;2023-03-01T06:08:24;-0.20;73.30
37794;DHT22;23632;48.826;15.176;2023-03-01T06:10:54;-0.20;73.10
37794;DHT22;23632;48.826;15.176;2023-03-01T06:13:21;-0.10;73.00
37794;DHT22;23632;48.826;15.176;2023-03-01T06:15:49;-0.10;72.80
37794;DHT22;23632;48.826;15.176;2023-03-01T06:18:16;0.00;72.70
37794;DHT22;23632;48.826;15.176;2023-03-01T06:20:43;0.00;72.50
37794;DHT22;23632;48.826;15.176;2023-03-01T06:23:10;0.00;72.50
37794;DHT22;23632;48.826;15.176;2023-03-01T06:25:37;0.00;72.30
37794;DHT22;23632;48.826;15.176;2023-03-01T06:28:04;0.00;72.30
37794;DHT22;23632;48.826;15.176;2023-03-01T06:30:31;0.00;72.20
37794;DHT22;23632;48.826;15.176;2023-03-01T06:32:58;0.00;72.20
37794;DHT22;23632;48.826;15.176;2023-03-01T06:35:28;0.00;72.20
37794;DHT22;23632;48.826;15.176;2023-03-01T06:37:57;0.00;72.20
37794;DHT22;23632;48.826;15.176;2023-03-01T06:40:25;0.00;72.20
37794;DHT22;23632;48.826;15.176;2023-03-01T06:42:52;0.00;72.20
37794;DHT22;23632;48.826;15.176;2023-03-01T06:45:20;0.00;72.20
37794;DHT22;23632;48.826;15.176;2023-03-01T06:47:48;0.00;72.20
37794;DHT22;23632;48.826;15.176;2023-03-01T06:50:16;0.00;72.20
37794;DHT22;23632;48.826;15.176;2023-03-01T06:52:44;0.00;72.30
37794;DHT22;23632;48.826;15.176;2023-03-01T06:55:12;0.00;72.20
37794;DHT22;23632;48.826;15.176;2023-03-01T06:57:40;0.00;72.20
37794;DHT22;23632;48.826;15.176;2023-03-01T07:00:08;0.10;72.20
37794;DHT22;23632;48.826;15.176;2023-03-01T07:02:35;0.10;72.30
37794;DHT22;23632;48.826;15.176;2023-03-01T07:05:03;0.10;72.40
37794;DHT22;23632;48.826;15.176;2023-03-01T07:07:30;0.10;72.30
37794;DHT22;23632;48.826;15.176;2023-03-01T07:09:57;0.10;72.30
37794;DHT22;23632;48.826;15.176;2023-03-01T07:12:24;0.20;72.30
37794;DHT22;23632;48.826;15.176;2023-03-01T07:14:51;0.20;72.30
37794;DHT22;23632;48.826;15.176;2023-03-01T07:17:18;0.20;72.30
37794;DHT22;23632;48.826;15.176;2023-03-01T07:19:45;0.20;72.40
37794;DHT22;23632;48.826;15.176;2023-03-01T07:22:12;0.30;72.50
37794;DHT22;23632;48.826;15.176;2023-03-01T07:24:41;0.30;72.50
37794;DHT22;23632;48.826;15.176;2023-03-01T07:27:09;0.30;72.50
37794;DHT22;23632;48.826;15.176;2023-03-01T07:29:36;0.40;72.50
37794;DHT22;23632;48.826;15.176;2023-03-01T07:32:04;0.40;72.50
37794;DHT22;23632;48.826;15.176;2023-03-01T07:34:32;0.50;73.50
37794;DHT22;23632;48.826;15.176;2023-03-01T07:36:59;0.50;72.60
37794;DHT22;23632;48.826;15.176;2023-03-01T07:39:26;0.50;72.70
37794;DHT22;23632;48.826;15.176;2023-03-01T07:41:53;0.60;72.80
37794;DHT22;23632;48.826;15.176;2023-03-01T07:44:21;0.70;73.00
37794;DHT22;23632;48.826;15.176;2023-03-01T07:46:48;0.80;73.00
37794;DHT22;23632;48.826;15.176;2023-03-01T07:49:15;0.90;73.00
37794;DHT22;23632;48.826;15.176;2023-03-01T07:51:43;0.90;72.90
37794;DHT22;23632;48.826;15.176;2023-03-01T07:54:10;1.00;72.90
37794;DHT22;23632;48.826;15.176;2023-03-01T07:56:37;1.10;73.00
37794;DHT22;23632;48.826;15.176;2023-03-01T07:59:04;1.20;73.00
37794;DHT22;23632;48.826;15.176;2023-03-01T08:01:31;1.30;72.90
37794;DHT22;23632;48.826;15.176;2023-03-01T08:03:58;1.40;72.80
37794;DHT22;23632;48.826;15.176;2023-03-01T08:06:25;1.50;72.80
37794;DHT22;23632;48.826;15.176;2023-03-01T08:08:52;1.50;72.80
37794;DHT22;23632;48.826;15.176;2023-03-01T08:11:21;1.60;73.00
37794;DHT22;23632;48.826;15.176;2023-03-01T08:13:49;1.80;73.20
37794;DHT22;23632;48.826;15.176;2023-03-01T08:16:19;1.90;73.10
37794;DHT22;23632;48.826;15.176;2023-03-01T08:18:46;2.00;73.00
37794;DHT22;23632;48.826;15.176;2023-03-01T08:21:15;2.20;73.00
37794;DHT22;23632;48.826;15.176;2023-03-01T08:23:44;2.30;72.80
37794;DHT22;23632;48.826;15.176;2023-03-01T08:26:17;2.40;72.60
37794;DHT22;23632;48.826;15.176;2023-03-01T08:28:46;2.50;72.40
37794;DHT22;23632;48.826;15.176;2023-03-01T08:31:33;2.60;72.20
37794;DHT22;23632;48.826;15.176;2023-03-01T08:34:08;2.70;72.20
37794;DHT22;23632;48.826;15.176;2023-03-01T08:36:42;2.90;72.10
37794;DHT22;23632;48.826;15.176;2023-03-01T08:39:12;3.00;72.00
37794;DHT22;23632;48.826;15.176;2023-03-01T08:41:41;3.10;71.80
37794;DHT22;23632;48.826;15.176;2023-03-01T08:44:10;3.20;71.60
37794;DHT22;23632;48.826;15.176;2023-03-01T08:46:40;3.30;71.50
37794;DHT22;23632;48.826;15.176;2023-03-01T08:49:13;3.40;71.30
37794;DHT22;23632;48.826;15.176;2023-03-01T08:51:43;3.50;71.30
37794;DHT22;23632;48.826;15.176;2023-03-01T08:54:13;3.60;71.40
37794;DHT22;23632;48.826;15.176;2023-03-01T08:56:42;3.70;71.50
37794;DHT22;23632;48.826;15.176;2023-03-01T08:59:10;3.80;71.50
37794;DHT22;23632;48.826;15.176;2023-03-01T09:01:38;3.80;71.50
37794;DHT22;23632;48.826;15.176;2023-03-01T09:04:06;3.90;71.30
37794;DHT22;23632;48.826;15.176;2023-03-01T09:06:34;4.00;71.10
37794;DHT22;23632;48.826;15.176;2023-03-01T09:09:02;4.10;71.00
37794;DHT22;23632;48.826;15.176;2023-03-01T09:11:30;4.20;71.00
37794;DHT22;23632;48.826;15.176;2023-03-01T09:13:57;4.30;70.80
37794;DHT22;23632;48.826;15.176;2023-03-01T09:16:24;4.40;70.80
37794;DHT22;23632;48.826;15.176;2023-03-01T09:18:52;4.50;70.90
37794;DHT22;23632;48.826;15.176;2023-03-01T09:21:23;4.60;70.60
37794;DHT22;23632;48.826;15.176;2023-03-01T09:24:06;4.70;70.30
37794;DHT22;23632;48.826;15.176;2023-03-01T09:26:39;4.80;70.20
37794;DHT22;23632;48.826;15.176;2023-03-01T09:29:06;4.90;70.30
37794;DHT22;23632;48.826;15.176;2023-03-01T09:31:33;5.00;70.30
37794;DHT22;23632;48.826;15.176;2023-03-01T09:34:00;5.20;70.00
37794;DHT22;23632;48.826;15.176;2023-03-01T09:36:27;5.30;69.90
37794;DHT22;23632;48.826;15.176;2023-03-01T09:38:56;5.50;69.70
37794;DHT22;23632;48.826;15.176;2023-03-01T09:46:59;6.00;69.60
37794;DHT22;23632;48.826;15.176;2023-03-01T09:49:33;6.30;69.20
37794;DHT22;23632;48.826;15.176;2023-03-01T09:52:25;6.50;68.80
37794;DHT22;23632;48.826;15.176;2023-03-01T09:54:56;6.70;68.60
37794;DHT22;23632;48.826;15.176;2023-03-01T10:02:45;7.40;67.60
37794;DHT22;23632;48.826;15.176;2023-03-01T10:09:13;7.80;67.20
37794;DHT22;23632;48.826;15.176;2023-03-01T10:11:46;8.10;66.50
37794;DHT22;23632;48.826;15.176;2023-03-01T10:14:39;8.30;65.30
37794;DHT22;23632;48.826;15.176;2023-03-01T10:17:36;8.40;65.90
37794;DHT22;23632;48.826;15.176;2023-03-01T10:20:22;8.60;65.50
37794;DHT22;23632;48.826;15.176;2023-03-01T10:22:52;8.70;64.70
37794;DHT22;23632;48.826;15.176;2023-03-01T10:28:05;8.90;64.60
37794;DHT22;23632;48.826;15.176;2023-03-01T10:30:40;9.00;64.30
37794;DHT22;23632;48.826;15.176;2023-03-01T10:33:19;9.20;64.60
37794;DHT22;23632;48.826;15.176;2023-03-01T10:35:52;9.20;64.60
37794;DHT22;23632;48.826;15.176;2023-03-01T10:38:20;9.30;64.40
37794;DHT22;23632;48.826;15.176;2023-03-01T10:43:22;9.50;64.20
37794;DHT22;23632;48.826;15.176;2023-03-01T10:45:50;9.60;63.40
37794;DHT22;23632;48.826;15.176;2023-03-01T10:48:23;9.60;63.40
37794;DHT22;23632;48.826;15.176;2023-03-01T10:56:09;10.00;61.40
37794;DHT22;23632;48.826;15.176;2023-03-01T10:58:39;10.10;61.10
37794;DHT22;23632;48.826;15.176;2023-03-01T11:01:35;10.10;60.70
37794;DHT22;23632;48.826;15.176;2023-03-01T11:04:11;10.20;61.70
37794;DHT22;23632;48.826;15.176;2023-03-01T11:06:41;10.30;60.90
37794;DHT22;23632;48.826;15.176;2023-03-01T11:11:56;10.50;61.00
37794;DHT22;23632;48.826;15.176;2023-03-01T11:15:08;10.70;60.30
37794;DHT22;23632;48.826;15.176;2023-03-01T11:17:31;10.80;60.30
37794;DHT22;23632;48.826;15.176;2023-03-01T11:20:29;10.80;60.00
37794;DHT22;23632;48.826;15.176;2023-03-01T11:23:13;10.80;60.60
37794;DHT22;23632;48.826;15.176;2023-03-01T11:25:49;10.80;60.20
37794;DHT22;23632;48.826;15.176;2023-03-01T11:28:21;10.80;59.50
37794;DHT22;23632;48.826;15.176;2023-03-01T11:30:59;10.80;59.60
37794;DHT22;23632;48.826;15.176;2023-03-01T11:36:51;10.80;59.60
37794;DHT22;23632;48.826;15.176;2023-03-01T11:42:10;11.00;58.80
37794;DHT22;23632;48.826;15.176;2023-03-01T11:44:47;11.10;59.70
37794;DHT22;23632;48.826;15.176;2023-03-01T11:47:42;11.30;59.30
37794;DHT22;23632;48.826;15.176;2023-03-01T11:50:44;11.40;59.00
37794;DHT22;23632;48.826;15.176;2023-03-01T12:02:20;11.90;59.30
37794;DHT22;23632;48.826;15.176;2023-03-01T12:08:04;12.10;57.40
37794;DHT22;23632;48.826;15.176;2023-03-01T12:14:01;12.40;56.80
37794;DHT22;23632;48.826;15.176;2023-03-01T12:32:20;12.70;55.70
37794;DHT22;23632;48.826;15.176;2023-03-01T12:40:45;13.00;55.20
37794;DHT22;23632;48.826;15.176;2023-03-01T12:43:53;13.00;55.40
37794;DHT22;23632;48.826;15.176;2023-03-01T12:46:41;13.10;56.10
37794;DHT22;23632;48.826;15.176;2023-03-01T12:49:28;13.20;55.20
37794;DHT22;23632;48.826;15.176;2023-03-01T12:52:14;13.20;55.10
37794;DHT22;23632;48.826;15.176;2023-03-01T12:54:49;13.10;54.20
37794;DHT22;23632;48.826;15.176;2023-03-01T12:57:20;13.10;54.30
37794;DHT22;23632;48.826;15.176;2023-03-01T13:06:02;12.60;54.10
37794;DHT22;23632;48.826;15.176;2023-03-01T13:11:52;12.20;55.50
37794;DHT22;23632;48.826;15.176;2023-03-01T13:16:52;11.80;55.40
37794;DHT22;23632;48.826;15.176;2023-03-01T13:19:24;11.70;55.70
37794;DHT22;23632;48.826;15.176;2023-03-01T13:21:54;11.60;55.80
37794;DHT22;23632;48.826;15.176;2023-03-01T13:24:28;11.50;55.70
37794;DHT22;23632;48.826;15.176;2023-03-01T13:35:02;11.10;56.00
37794;DHT22;23632;48.826;15.176;2023-03-01T13:37:35;11.10;56.20
37794;DHT22;23632;48.826;15.176;2023-03-01T13:42:55;11.10;56.80
37794;DHT22;23632;48.826;15.176;2023-03-01T13:45:36;11.20;56.50
37794;DHT22;23632;48.826;15.176;2023-03-01T13:48:18;11.20;56.10
37794;DHT22;23632;48.826;15.176;2023-03-01T13:51:03;11.20;56.40
37794;DHT22;23632;48.826;15.176;2023-03-01T13:53:37;11.20;56.20
37794;DHT22;23632;48.826;15.176;2023-03-01T13:58:58;11.30;55.70
37794;DHT22;23632;48.826;15.176;2023-03-01T14:01:31;11.40;56.20
37794;DHT22;23632;48.826;15.176;2023-03-01T14:04:01;11.40;55.60
37794;DHT22;23632;48.826;15.176;2023-03-01T14:06:32;11.50;55.70
37794;DHT22;23632;48.826;15.176;2023-03-01T14:09:15;11.70;55.90
37794;DHT22;23632;48.826;15.176;2023-03-01T14:14:52;12.10;56.30
37794;DHT22;23632;48.826;15.176;2023-03-01T14:17:38;12.50;55.40
37794;DHT22;23632;48.826;15.176;2023-03-01T14:20:23;12.80;55.60
37794;DHT22;23632;48.826;15.176;2023-03-01T14:22:54;13.20;55.20
37794;DHT22;23632;48.826;15.176;2023-03-01T14:25:34;13.70;55.00
37794;DHT22;23632;48.826;15.176;2023-03-01T14:28:18;14.20;55.60
37794;DHT22;23632;48.826;15.176;2023-03-01T14:30:49;14.80;53.50
37794;DHT22;23632;48.826;15.176;2023-03-01T14:33:28;15.50;53.50
37794;DHT22;23632;48.826;15.176;2023-03-01T14:36:06;16.10;52.00
37794;DHT22;23632;48.826;15.176;2023-03-01T14:38:42;16.80;51.10
37794;DHT22;23632;48.826;15.176;2023-03-01T14:41:19;17.30;50.70
37794;DHT22;23632;48.826;15.176;2023-03-01T14:44:00;17.70;50.40
37794;DHT22;23632;48.826;15.176;2023-03-01T14:46:40;18.10;50.90
37794;DHT22;23632;48.826;15.176;2023-03-01T14:49:19;18.50;49.70
37794;DHT22;23632;48.826;15.176;2023-03-01T14:52:18;18.90;48.90
37794;DHT22;23632;48.826;15.176;2023-03-01T14:54:52;19.20;49.60
37794;DHT22;23632;48.826;15.176;2023-03-01T14:57:24;19.40;47.40
37794;DHT22;23632;48.826;15.176;2023-03-01T14:59:54;19.60;46.60
37794;DHT22;23632;48.826;15.176;2023-03-01T15:02:24;19.70;46.20
37794;DHT22;23632;48.826;15.176;2023-03-01T15:04:55;19.80;46.20
37794;DHT22;23632;48.826;15.176;2023-03-01T15:07:29;19.90;46.00
37794;DHT22;23632;48.826;15.176;2023-03-01T15:09:59;20.10;46.20
37794;DHT22;23632;48.826;15.176;2023-03-01T15:12:35;20.10;45.30
37794;DHT22;23632;48.826;15.176;2023-03-01T15:15:35;20.20;44.90
37794;DHT22;23632;48.826;15.176;2023-03-01T15:18:17;20.20;46.50
37794;DHT22;23632;48.826;15.176;2023-03-01T15:20:49;20.20;45.20
37794;DHT22;23632;48.826;15.176;2023-03-01T15:23:25;20.10;46.00
37794;DHT22;23632;48.826;15.176;2023-03-01T15:25:55;20.10;45.10
37794;DHT22;23632;48.826;15.176;2023-03-01T15:28:31;20.00;44.50
37794;DHT22;23632;48.826;15.176;2023-03-01T15:33:37;19.80;44.40
37794;DHT22;23632;48.826;15.176;2023-03-01T15:36:32;19.50;43.60
37794;DHT22;23632;48.826;15.176;2023-03-01T15:39:00;18.90;44.40
37794;DHT22;23632;48.826;15.176;2023-03-01T15:41:31;18.30;43.60
37794;DHT22;23632;48.826;15.176;2023-03-01T15:44:13;17.60;44.00
37794;DHT22;23632;48.826;15.176;2023-03-01T15:46:46;16.80;44.40
37794;DHT22;23632;48.826;15.176;2023-03-01T15:52:27;15.20;45.70
37794;DHT22;23632;48.826;15.176;2023-03-01T15:55:01;14.40;46.50
37794;DHT22;23632;48.826;15.176;2023-03-01T15:57:30;13.80;47.20
37794;DHT22;23632;48.826;15.176;2023-03-01T15:59:57;13.20;47.80
37794;DHT22;23632;48.826;15.176;2023-03-01T16:02:24;12.60;48.20
37794;DHT22;23632;48.826;15.176;2023-03-01T16:04:51;12.10;48.70
37794;DHT22;23632;48.826;15.176;2023-03-01T16:07:20;11.70;49.40
37794;DHT22;23632;48.826;15.176;2023-03-01T16:09:47;11.30;49.80
37794;DHT22;23632;48.826;15.176;2023-03-01T16:12:15;10.90;50.40
37794;DHT22;23632;48.826;15.176;2023-03-01T16:14:43;10.50;50.70
37794;DHT22;23632;48.826;15.176;2023-03-01T16:17:10;10.20;51.30
37794;DHT22;23632;48.826;15.176;2023-03-01T16:19:38;9.90;53.30
37794;DHT22;23632;48.826;15.176;2023-03-01T16:22:05;9.60;54.20
37794;DHT22;23632;48.826;15.176;2023-03-01T16:24:32;9.30;54.40
37794;DHT22;23632;48.826;15.176;2023-03-01T16:26:59;9.10;55.00
37794;DHT22;23632;48.826;15.176;2023-03-01T16:29:26;8.90;54.80
37794;DHT22;23632;48.826;15.176;2023-03-01T16:31:53;8.70;54.70
37794;DHT22;23632;48.826;15.176;2023-03-01T16:34:20;8.50;55.50
37794;DHT22;23632;48.826;15.176;2023-03-01T16:36:48;8.30;57.10
37794;DHT22;23632;48.826;15.176;2023-03-01T16:39:15;8.10;56.20
37794;DHT22;23632;48.826;15.176;2023-03-01T16:41:43;7.90;56.40
37794;DHT22;23632;48.826;15.176;2023-03-01T16:44:10;7.70;56.70
37794;DHT22;23632;48.826;15.176;2023-03-01T16:46:37;7.60;56.60
37794;DHT22;23632;48.826;15.176;2023-03-01T16:49:04;7.40;56.90
37794;DHT22;23632;48.826;15.176;2023-03-01T16:51:31;7.20;57.10
37794;DHT22;23632;48.826;15.176;2023-03-01T16:54:01;7.10;57.30
37794;DHT22;23632;48.826;15.176;2023-03-01T16:56:31;6.90;58.00
37794;DHT22;23632;48.826;15.176;2023-03-01T16:59:01;6.80;58.10
37794;DHT22;23632;48.826;15.176;2023-03-01T17:01:32;6.60;58.00
37794;DHT22;23632;48.826;15.176;2023-03-01T17:04:08;6.50;58.20
37794;DHT22;23632;48.826;15.176;2023-03-01T17:06:37;6.40;58.50
37794;DHT22;23632;48.826;15.176;2023-03-01T17:09:04;6.20;58.40
37794;DHT22;23632;48.826;15.176;2023-03-01T17:11:31;6.10;58.80
37794;DHT22;23632;48.826;15.176;2023-03-01T17:13:58;6.00;58.80
37794;DHT22;23632;48.826;15.176;2023-03-01T17:16:25;5.90;58.80
37794;DHT22;23632;48.826;15.176;2023-03-01T17:18:53;5.80;59.10
37794;DHT22;23632;48.826;15.176;2023-03-01T17:21:20;5.70;59.20
37794;DHT22;23632;48.826;15.176;2023-03-01T17:23:48;5.60;59.40
37794;DHT22;23632;48.826;15.176;2023-03-01T17:26:16;5.50;59.40
37794;DHT22;23632;48.826;15.176;2023-03-01T17:28:43;5.40;59.50
37794;DHT22;23632;48.826;15.176;2023-03-01T17:31:10;5.30;59.80
37794;DHT22;23632;48.826;15.176;2023-03-01T17:33:37;5.20;59.90
37794;DHT22;23632;48.826;15.176;2023-03-01T17:36:04;5.10;60.00
37794;DHT22;23632;48.826;15.176;2023-03-01T17:38:31;5.00;60.10
37794;DHT22;23632;48.826;15.176;2023-03-01T17:40:59;5.00;60.20
37794;DHT22;23632;48.826;15.176;2023-03-01T17:43:26;4.90;60.30
37794;DHT22;23632;48.826;15.176;2023-03-01T17:45:55;4.80;60.50